sensor_id;sensor_type;location;lat;lon;timestamp;pressure;altitude;pressure_sealevel;temperature;humidity
45941;BME280;31858;46.008;8.978;2023-05-10T00:01:08;94226.41;;;12.91;100.00
45941;BME280;31858;46.008;8.978;2023-05-10T00:11:09;94229.88;;;12.88;100.00
45941;BME280;31858;46.008;8.978;2023-05-10T00:21:12;94210.88;;;12.72;100.00
45941;BME280;31858;46.008;8.978;2023-05-10T00:31:14;94210.78;;;12.20;100.00
45941;BME280;31858;46.008;8.978;2023-05-10T00:41:17;94209.75;;;11.96;100.00
45941;BME280;31858;46.008;8.978;2023-05-10T00:51:19;94228.84;;;11.88;100.00
45941;BME280;31858;46.008;8.978;2023-05-10T01:01:22;94222.78;;;11.66;100.00
45941;BME280;31858;46.008;8.978;2023-05-10T01:11:24;94214.06;;;11.40;100.00
45941;BME280;31858;46.008;8.978;2023-05-10T01:21:35;94218.66;;;11.33;100.00
45941;BME280;31858;46.008;8.978;2023-05-10T01:32:00;94221.31;;;11.04;100.00
45941;BME280;31858;46.008;8.978;2023-05-10T01:42:09;94227.41;;;10.98;100.00
45941;BME280;31858;46.008;8.978;2023-05-10T01:52:16;94236.56;;;10.86;100.00
45941;BME280;31858;46.008;8.978;2023-05-10T02:02:20;94232.00;;;10.94;100.00
45941;BME280;31858;46.008;8.978;2023-05-10T02:12:24;94238.09;;;10.91;100.00
45941;BME280;31858;46.008;8.978;2023-05-10T02:22:27;94247.22;;;10.93;100.00
45941;BME280;31858;46.008;8.978;2023-05-10T02:32:31;94239.22;;;10.79;100.00
45941;BME280;31858;46.008;8.978;2023-05-10T02:42:36;94252.13;;;10.70;100.00
45941;BME280;31858;46.008;8.978;2023-05-10T02:52:44;94255.59;;;10.81;100.00
45941;BME280;31858;46.008;8.978;2023-05-10T03:02:48;94254.06;;;10.84;100.00
45941;BME280;31858;46.008;8.978;2023-05-10T03:13:05;94223.97;;;10.69;100.00
45941;BME280;31858;46.008;8.978;2023-05-10T03:23:12;94219.41;;;10.73;100.00
45941;BME280;31858;46.008;8.978;2023-05-10T03:33:16;94224.75;;;10.87;100.00
45941;BME280;31858;46.008;8.978;2023-05-10T03:43:17;94214.47;;;10.89;100.00
45941;BME280;31858;46.008;8.978;2023-05-10T03:53:20;94209.91;;;11.00;100.00
45941;BME280;31858;46.008;8.978;2023-05-10T04:03:23;94227.44;;;11.16;100.00
45941;BME280;31858;46.008;8.978;2023-05-10T04:13:27;94212.56;;;11.15;100.00
45941;BME280;31858;46.008;8.978;2023-05-10T04:23:28;94214.47;;;10.89;100.00
45941;BME280;31858;46.008;8.978;2023-05-10T04:33:32;94216.38;;;10.74;100.00
45941;BME280;31858;46.008;8.978;2023-05-10T04:43:34;94209.09;;;10.61;100.00
45941;BME280;31858;46.008;8.978;2023-05-10T04:53:37;94215.16;;;10.43;100.00
45941;BME280;31858;46.008;8.978;2023-05-10T05:03:39;94210.63;;;10.37;100.00
45941;BME280;31858;46.008;8.978;2023-05-10T05:13:42;94185.88;;;10.43;100.00
45941;BME280;31858;46.008;8.978;2023-05-10T05:23:44;94180.16;;;10.49;100.00
45941;BME280;31858;46.008;8.978;2023-05-10T05:33:47;94194.63;;;10.51;100.00
45941;BME280;31858;46.008;8.978;2023-05-10T05:43:48;94203.03;;;10.60;100.00
45941;BME280;31858;46.008;8.978;2023-05-10T05:53:51;94201.88;;;10.58;100.00
45941;BME280;31858;46.008;8.978;2023-05-10T06:03:53;94201.47;;;10.52;100.00
45941;BME280;31858;46.008;8.978;2023-05-10T06:13:56;94212.50;;;10.43;100.00
45941;BME280;31858;46.008;8.978;2023-05-10T06:23:58;94222.78;;;10.31;100.00
45941;BME280;31858;46.008;8.978;2023-05-10T06:34:01;94234.94;;;10.28;100.00
45941;BME280;31858;46.008;8.978;2023-05-10T06:44:03;94243.72;;;10.36;100.00
45941;BME280;31858;46.008;8.978;2023-05-10T06:54:06;94256.66;;;10.44;100.00
45941;BME280;31858;46.008;8.978;2023-05-10T07:04:08;94259.31;;;10.52;100.00
45941;BME280;31858;46.008;8.978;2023-05-10T07:14:11;94254.75;;;10.49;100.00
45941;BME280;31858;46.008;8.978;2023-05-10T07:34:24;94241.06;;;10.50;100.00
45941;BME280;31858;46.008;8.978;2023-05-10T07:44:26;94252.84;;;10.45;100.00
45941;BME280;31858;46.008;8.978;2023-05-10T07:54:29;94247.88;;;10.40;100.00
45941;BME280;31858;46.008;8.978;2023-05-10T08:04:30;94247.91;;;10.37;100.00
45941;BME280;31858;46.008;8.978;2023-05-10T08:14:33;94246.72;;;10.27;100.00
45941;BME280;31858;46.008;8.978;2023-05-10T08:24:36;94250.16;;;10.31;100.00
45941;BME280;31858;46.008;8.978;2023-05-10T08:34:40;94250.53;;;10.40;100.00
45941;BME280;31858;46.008;8.978;2023-05-10T08:44:42;94258.56;;;10.48;100.00
45941;BME280;31858;46.008;8.978;2023-05-10T08:54:45;94249.81;;;10.51;100.00
45941;BME280;31858;46.008;8.978;2023-05-10T09:04:47;94251.31;;;10.37;100.00
45941;BME280;31858;46.008;8.978;2023-05-10T09:14:52;94263.13;;;10.40;100.00
45941;BME280;31858;46.008;8.978;2023-05-10T09:25:04;94272.25;;;10.50;100.00
45941;BME280;31858;46.008;8.978;2023-05-10T09:35:08;94258.22;;;10.60;100.00
45941;BME280;31858;46.008;8.978;2023-05-10T09:45:10;94265.44;;;10.63;100.00
45941;BME280;31858;46.008;8.978;2023-05-10T09:55:13;94274.59;;;10.72;100.00
45941;BME280;31858;46.008;8.978;2023-05-10T10:05:15;94271.59;;;10.85;100.00
45941;BME280;31858;46.008;8.978;2023-05-10T10:15:18;94260.53;;;10.83;100.00
45941;BME280;31858;46.008;8.978;2023-05-10T10:25:21;94249.91;;;11.00;100.00
45941;BME280;31858;46.008;8.978;2023-05-10T10:35:25;94247.63;;;11.09;100.00
45941;BME280;31858;46.008;8.978;2023-05-10T10:45:26;94246.84;;;11.34;100.00
45941;BME280;31858;46.008;8.978;2023-05-10T10:55:29;94228.91;;;11.63;100.00
45941;BME280;31858;46.008;8.978;2023-05-10T11:05:36;94218.19;;;11.81;100.00
45941;BME280;31858;46.008;8.978;2023-05-10T11:15:40;94202.50;;;11.90;100.00
45941;BME280;31858;46.008;8.978;2023-05-10T11:38:10;94172.31;;;12.03;100.00
45941;BME280;31858;46.008;8.978;2023-05-10T11:48:12;94154.75;;;12.09;100.00
45941;BME280;31858;46.008;8.978;2023-05-10T11:58:15;94156.13;;;12.35;100.00
45941;BME280;31858;46.008;8.978;2023-05-10T12:08:20;94146.88;;;12.51;100.00
45941;BME280;31858;46.008;8.978;2023-05-10T12:18:24;94134.28;;;12.99;100.00
45941;BME280;31858;46.008;8.978;2023-05-10T12:28:29;94112.91;;;13.37;100.00
45941;BME280;31858;46.008;8.978;2023-05-10T12:38:34;94090.22;;;13.49;100.00
45941;BME280;31858;46.008;8.978;2023-05-10T12:48:39;94093.22;;;13.54;100.00
45941;BME280;31858;46.008;8.978;2023-05-10T12:58:42;94089.63;;;13.34;100.00
45941;BME280;31858;46.008;8.978;2023-05-10T13:08:48;94078.28;;;13.23;100.00
45941;BME280;31858;46.008;8.978;2023-05-10T13:18:51;94071.75;;;13.24;100.00
45941;BME280;31858;46.008;8.978;2023-05-10T13:28:52;94070.81;;;13.41;100.00
45941;BME280;31858;46.008;8.978;2023-05-10T13:38:57;94057.19;;;13.62;100.00
45941;BME280;31858;46.008;8.978;2023-05-10T13:48:58;94056.50;;;13.21;100.00
45941;BME280;31858;46.008;8.978;2023-05-10T13:59:01;94053.63;;;13.01;100.00
45941;BME280;31858;46.008;8.978;2023-05-10T14:09:03;94055.47;;;13.07;100.00
45941;BME280;31858;46.008;8.978;2023-05-10T14:19:06;94047.81;;;13.10;100.00
45941;BME280;31858;46.008;8.978;2023-05-10T14:29:08;94029.00;;;13.20;100.00
45941;BME280;31858;46.008;8.978;2023-05-10T14:39:11;94030.84;;;13.27;100.00
45941;BME280;31858;46.008;8.978;2023-05-10T14:49:13;94023.09;;;13.36;100.00
45941;BME280;31858;46.008;8.978;2023-05-10T14:59:16;94007.75;;;13.40;100.00
45941;BME280;31858;46.008;8.978;2023-05-10T15:09:18;94004.63;;;13.45;100.00
45941;BME280;31858;46.008;8.978;2023-05-10T15:19:21;94005.78;;;13.75;100.00
45941;BME280;31858;46.008;8.978;2023-05-10T15:29:22;93999.91;;;14.10;100.00
45941;BME280;31858;46.008;8.978;2023-05-10T15:39:26;93999.03;;;14.17;100.00
45941;BME280;31858;46.008;8.978;2023-05-10T15:49:27;93996.81;;;14.12;100.00
45941;BME280;31858;46.008;8.978;2023-05-10T15:59:31;94000.13;;;13.96;100.00
45941;BME280;31858;46.008;8.978;2023-05-10T16:09:33;94000.13;;;13.96;100.00
45941;BME280;31858;46.008;8.978;2023-05-10T16:19:36;94003.84;;;14.02;100.00
45941;BME280;31858;46.008;8.978;2023-05-10T16:29:37;94001.78;;;13.86;100.00
45941;BME280;31858;46.008;8.978;2023-05-10T16:39:40;94011.94;;;13.71;100.00
45941;BME280;31858;46.008;8.978;2023-05-10T16:49:42;94016.66;;;13.60;100.00
45941;BME280;31858;46.008;8.978;2023-05-10T16:59:45;94021.78;;;13.48;100.00
45941;BME280;31858;46.008;8.978;2023-05-10T17:09:47;94024.34;;;13.28;100.00
45941;BME280;31858;46.008;8.978;2023-05-10T17:19:50;94031.69;;;13.20;100.00
45941;BME280;31858;46.008;8.978;2023-05-10T17:29:54;94035.16;;;13.14;100.00
45941;BME280;31858;46.008;8.978;2023-05-10T17:39:58;94047.25;;;12.91;100.00
45941;BME280;31858;46.008;8.978;2023-05-10T17:50:00;94067.81;;;12.57;100.00
45941;BME280;31858;46.008;8.978;2023-05-10T18:00:03;94079.06;;;12.30;100.00
45941;BME280;31858;46.008;8.978;2023-05-10T18:10:09;94101.28;;;12.20;100.00
45941;BME280;31858;46.008;8.978;2023-05-10T18:20:12;94112.91;;;11.85;100.00
45941;BME280;31858;46.008;8.978;2023-05-10T18:30:14;94112.28;;;11.53;100.00
45941;BME280;31858;46.008;8.978;2023-05-10T18:40:17;94134.03;;;11.48;100.00
45941;BME280;31858;46.008;8.978;2023-05-10T18:50:18;94138.22;;;11.45;100.00
45941;BME280;31858;46.008;8.978;2023-05-10T19:00:22;94138.22;;;11.41;100.00
45941;BME280;31858;46.008;8.978;2023-05-10T19:10:23;94134.84;;;11.20;100.00
45941;BME280;31858;46.008;8.978;2023-05-10T19:20:26;94134.47;;;11.18;100.00
45941;BME280;31858;46.008;8.978;2023-05-10T19:30:28;94139.03;;;11.17;100.00
45941;BME280;31858;46.008;8.978;2023-05-10T19:40:32;94145.13;;;11.25;100.00
45941;BME280;31858;46.008;8.978;2023-05-10T19:50:33;94144.34;;;11.31;100.00
45941;BME280;31858;46.008;8.978;2023-05-10T20:00:36;94141.69;;;11.24;100.00
45941;BME280;31858;46.008;8.978;2023-05-10T20:10:38;94149.69;;;11.31;100.00
45941;BME280;31858;46.008;8.978;2023-05-10T20:20:41;94155.00;;;11.35;100.00
45941;BME280;31858;46.008;8.978;2023-05-10T20:30:43;94163.00;;;11.42;100.00
45941;BME280;31858;46.008;8.978;2023-05-10T20:40:46;94152.31;;;11.49;100.00
45941;BME280;31858;46.008;8.978;2023-05-10T20:50:48;94163.34;;;11.51;100.00
45941;BME280;31858;46.008;8.978;2023-05-10T21:00:52;94141.28;;;11.43;100.00
45941;BME280;31858;46.008;8.978;2023-05-10T21:10:54;94150.44;;;11.39;100.00
45941;BME280;31858;46.008;8.978;2023-05-10T21:20:57;94145.47;;;11.41;100.00
45941;BME280;31858;46.008;8.978;2023-05-10T21:30:59;94145.84;;;11.43;100.00
45941;BME280;31858;46.008;8.978;2023-05-10T21:41:05;94147.38;;;11.40;100.00
45941;BME280;31858;46.008;8.978;2023-05-10T21:51:08;94155.78;;;11.25;100.00
45941;BME280;31858;46.008;8.978;2023-05-10T22:01:11;94164.19;;;11.13;100.00
45941;BME280;31858;46.008;8.978;2023-05-10T22:11:14;94172.59;;;10.97;100.00
45941;BME280;31858;46.008;8.978;2023-05-10T22:21:17;94175.25;;;11.00;100.00
45941;BME280;31858;46.008;8.978;2023-05-10T22:31:18;94175.25;;;11.00;100.00
45941;BME280;31858;46.008;8.978;2023-05-10T22:41:22;94171.06;;;10.99;100.00
45941;BME280;31858;46.008;8.978;2023-05-10T22:51:23;94164.59;;;11.00;100.00
45941;BME280;31858;46.008;8.978;2023-05-10T23:01:27;94161.91;;;10.97;100.00
45941;BME280;31858;46.008;8.978;2023-05-10T23:11:29;94157.34;;;10.94;100.00
45941;BME280;31858;46.008;8.978;2023-05-10T23:21:32;94145.16;;;11.03;100.00
45941;BME280;31858;46.008;8.978;2023-05-10T23:31:33;94145.53;;;11.13;100.00
45941;BME280;31858;46.008;8.978;2023-05-10T23:41:37;94138.28;;;11.13;100.00
45941;BME280;31858;46.008;8.978;2023-05-10T23:51:39;94123.44;;;11.12;100.00
